Hlavní strana
METAR-TAF:

METAR-TAF

Letiště :

Djanet, Alžírsko

zeměpisná šířka: 24-33N, zeměpisná délka: 009-28E, výška: 1054 m

Aktuální stav počasí

Zpráva byla vytvořena před 1 hodinou a 0 minutami, v 13:00 UTC
Severoseverozápadní vítr 3 kt
Teplota 23°C
Tlak 1020 hPa
Viditelnost 10 km a více
Žádná oblačnost pod 1500 m, nevyskytují se cumulonimby.

METAR: DAAJ 011300Z 34003KT CAVOK 23/// Q1020

Čas: 15:00 (14:00 UTC)

Předpověď počasí

Zpráva byla vytvořena před 3 hodinami a 0 minutami, v 11:00 UTC
Předpověď platná od 01 v 12 UTC do 02 v 12 UTC
Západní vítr 8 kt
Viditelnost 10 km a více
Žádná oblačnost pod 1500 m, nevyskytují se cumulonimby.
Dočasný
od 01 v 20 UTC do 02 v 03 UTC
Východojihovýchodní vítr 10 kt

TAF: DAAJ 011100Z 0112/0212 26008KT CAVOK TEMPO 0120/0203 12010KT

Stav a předpovědi počasí z více než 4 000 letišť (zprávy METAR a TAF).

Červené a žluté tečky na mapě představují dostupné meteorologické stanice.

Když kurzor umístíte na tečku, zobrazí se název stanice.

Pak kliknutím zobrazíte stav a předpověď počasí.

Chcete-li změnit mapu, kliknutím na zelené tlačítko se znaménkem +mapu přiblížíte, kliknutím na zelené tlačítko se znaménkem – mapu oddálíte a kliknutím na zelené šipky přejdete na sousední mapy.


METAR-TAF: